Time;durP1;ratioP1;P1;durP2;ratioP2;P2;SDS_P1;SDS_P2;PMS_P1;PMS_P2;Temp;Humidity;BMP_temperature;BMP_pressure;BME280_temperature;BME280_humidity;BME280_pressure;Samples;Min_cycle;Max_cycle;Signal;HPM_P1;HPM_P2
2023/01/05 05:08:56;;;;;;;0.68;0.60;;;11.60;99.90;;;;;;4973036;28;20292;-69
2023/01/05 05:11:21;;;;;;;0.80;0.53;;;11.60;99.90;;;;;;4974350;28;20203;-73
2023/01/05 05:13:47;;;;;;;1.00;1.00;;;11.60;99.90;;;;;;4973912;28;20528;-70
2023/01/05 05:16:13;;;;;;;0.50;0.50;;;11.60;99.90;;;;;;4974343;28;20161;-70
2023/01/05 05:18:38;;;;;;;0.50;0.50;;;11.50;99.90;;;;;;4974200;28;20579;-71
2023/01/05 05:21:04;;;;;;;0.40;0.40;;;11.50;99.90;;;;;;4974110;28;20202;-70
2023/01/05 05:23:30;;;;;;;0.50;0.50;;;11.50;99.90;;;;;;4973730;28;20170;-71
2023/01/05 05:25:55;;;;;;;0.70;0.57;;;11.40;99.90;;;;;;4974200;28;20177;-71
2023/01/05 05:28:23;;;;;;;0.40;0.40;;;11.40;99.90;;;;;;4974200;28;20176;-69
2023/01/05 05:30:49;;;;;;;0.30;0.30;;;11.40;99.90;;;;;;4974078;28;20662;-70
2023/01/05 05:33:14;;;;;;;0.30;0.30;;;11.40;99.90;;;;;;4964216;28;20216;-70
2023/01/05 05:35:40;;;;;;;0.30;0.30;;;11.40;99.90;;;;;;4973018;28;20942;-69
2023/01/05 05:38:06;;;;;;;0.30;0.30;;;11.40;99.90;;;;;;4973924;28;20640;-70
2023/01/05 05:40:32;;;;;;;0.30;0.30;;;11.40;99.90;;;;;;4976199;28;20238;-71
2023/01/05 05:42:57;;;;;;;0.40;0.40;;;11.30;99.90;;;;;;4977250;28;20208;-71
2023/01/05 05:45:23;;;;;;;0.40;0.40;;;11.30;99.90;;;;;;4972811;28;20259;-71
2023/01/05 05:47:48;;;;;;;0.60;0.30;;;11.30;99.90;;;;;;4958642;28;20208;-72
2023/01/05 05:50:14;;;;;;;0.30;0.30;;;11.30;99.90;;;;;;4958058;29;20685;-71
2023/01/05 05:52:40;;;;;;;0.30;0.30;;;11.40;99.90;;;;;;4957764;28;20654;-71
2023/01/05 05:55:06;;;;;;;0.30;0.30;;;11.40;99.90;;;;;;4957863;29;20232;-71
2023/01/05 05:57:31;;;;;;;0.30;0.30;;;11.40;99.90;;;;;;4957628;29;20173;-71
2023/01/05 05:59:57;;;;;;;0.40;0.40;;;11.40;99.90;;;;;;4958064;29;20265;-72
2023/01/05 06:02:22;;;;;;;0.43;0.43;;;11.50;99.90;;;;;;4961638;28;20197;-71
2023/01/05 06:04:48;;;;;;;0.60;0.60;;;11.50;99.90;;;;;;4976812;28;20202;-71
2023/01/05 06:07:14;;;;;;;0.73;0.50;;;11.50;99.90;;;;;;4975677;28;20186;-71
2023/01/05 06:09:39;;;;;;;0.50;0.50;;;11.50;99.90;;;;;;4975914;28;20174;-72
2023/01/05 06:12:05;;;;;;;0.70;0.50;;;11.50;99.90;;;;;;4975942;28;20203;-71
2023/01/05 06:14:30;;;;;;;0.70;0.70;;;11.50;99.90;;;;;;4976254;28;20258;-70
2023/01/05 06:16:56;;;;;;;0.70;0.40;;;11.50;99.90;;;;;;4976670;28;20173;-70
2023/01/05 06:19:21;;;;;;;0.87;0.50;;;11.50;99.90;;;;;;4976507;28;20176;-71
2023/01/05 06:21:47;;;;;;;0.73;0.57;;;11.40;99.90;;;;;;4975428;28;20191;-66
2023/01/05 06:24:13;;;;;;;2.27;0.93;;;11.50;99.90;;;;;;4976075;28;20205;-65
2023/01/05 06:26:38;;;;;;;0.77;0.60;;;11.40;99.90;;;;;;4968194;28;20208;-65
2023/01/05 06:29:04;;;;;;;0.50;0.50;;;11.50;99.90;;;;;;4967414;28;20176;-66
2023/01/05 06:31:29;;;;;;;0.47;0.47;;;11.50;99.90;;;;;;4963540;28;20292;-67
2023/01/05 06:33:55;;;;;;;2.80;0.90;;;11.40;99.90;;;;;;4966018;28;20196;-67
2023/01/05 06:36:21;;;;;;;0.90;0.83;;;11.40;99.90;;;;;;4976819;28;20215;-66
2023/01/05 06:38:46;;;;;;;0.63;0.63;;;11.50;99.90;;;;;;4961205;28;20257;-67
2023/01/05 06:41:12;;;;;;;1.30;0.63;;;11.40;99.90;;;;;;4957456;28;20179;-68
2023/01/05 06:43:37;;;;;;;1.40;0.80;;;11.40;99.90;;;;;;4955622;28;20184;-67
2023/01/05 06:46:03;;;;;;;0.60;0.60;;;11.40;99.90;;;;;;4967097;28;20176;-62
2023/01/05 06:48:28;;;;;;;2.40;0.70;;;11.40;99.90;;;;;;4976345;28;20182;-62
2023/01/05 06:50:54;;;;;;;1.43;0.60;;;11.30;99.90;;;;;;4974581;28;20299;-62
2023/01/05 06:53:20;;;;;;;1.33;0.77;;;11.30;99.90;;;;;;4965692;28;20181;-61
2023/01/05 06:55:45;;;;;;;2.63;0.80;;;11.30;99.90;;;;;;4964020;28;20193;-61
2023/01/05 06:58:11;;;;;;;0.63;0.63;;;11.20;99.90;;;;;;4962759;28;20521;-62
2023/01/05 07:00:37;;;;;;;0.60;0.60;;;11.20;99.90;;;;;;4956580;28;20593;-63
2023/01/05 07:03:02;;;;;;;0.83;0.77;;;11.20;99.90;;;;;;4975337;28;20204;-61
2023/01/05 07:05:28;;;;;;;0.53;0.53;;;11.10;99.90;;;;;;4976015;28;20199;-62
2023/01/05 07:07:53;;;;;;;1.23;0.90;;;11.10;99.90;;;;;;4975749;28;20189;-62
2023/01/05 07:10:19;;;;;;;0.67;0.57;;;11.10;99.90;;;;;;4966212;28;20200;-62
2023/01/05 07:12:45;;;;;;;0.50;0.50;;;11.00;99.90;;;;;;4958160;28;20184;-61
2023/01/05 07:15:10;;;;;;;1.03;0.90;;;10.90;99.90;;;;;;4956446;29;20220;-61
2023/01/05 07:17:36;;;;;;;1.50;0.93;;;10.90;99.90;;;;;;4956524;29;20635;-61
2023/01/05 07:20:03;;;;;;;0.80;0.80;;;10.90;99.90;;;;;;4956465;28;20228;-61
2023/01/05 07:22:29;;;;;;;0.60;0.60;;;10.80;99.90;;;;;;4964961;28;20187;-60
2023/01/05 07:24:57;;;;;;;1.27;1.17;;;10.80;99.90;;;;;;4956421;28;20667;-60
2023/01/05 07:27:23;;;;;;;0.80;0.80;;;10.80;99.90;;;;;;4962348;28;20415;-61
2023/01/05 07:29:48;;;;;;;1.73;1.17;;;10.80;99.90;;;;;;4975577;28;20184;-60
2023/01/05 07:32:14;;;;;;;1.53;1.37;;;10.70;99.90;;;;;;4958396;28;20231;-61
2023/01/05 07:34:39;;;;;;;2.40;1.93;;;10.80;99.90;;;;;;4955882;28;20207;-62
2023/01/05 07:37:05;;;;;;;1.67;1.27;;;10.80;99.90;;;;;;4964475;28;20192;-62
2023/01/05 07:39:31;;;;;;;1.60;0.83;;;10.80;99.90;;;;;;4975339;28;20172;-62
2023/01/05 07:41:56;;;;;;;1.80;1.63;;;10.80;99.90;;;;;;4975308;28;20236;-62
2023/01/05 07:44:22;;;;;;;1.33;1.20;;;10.80;99.90;;;;;;4968812;28;20224;-63
2023/01/05 07:46:47;;;;;;;2.13;0.90;;;10.90;99.90;;;;;;4956099;28;20181;-62
2023/01/05 07:49:14;;;;;;;1.40;1.30;;;10.90;99.90;;;;;;4958459;28;20185;-60
2023/01/05 07:51:40;;;;;;;0.50;0.50;;;11.00;99.90;;;;;;4970761;28;20213;-61
2023/01/05 07:54:05;;;;;;;3.20;0.90;;;11.00;99.90;;;;;;4955404;28;20345;-61
2023/01/05 07:56:31;;;;;;;1.70;1.50;;;11.00;99.90;;;;;;4955677;29;20265;-61
2023/01/05 07:58:57;;;;;;;0.70;0.70;;;11.00;99.90;;;;;;4955681;28;20579;-63
2023/01/05 08:01:23;;;;;;;1.80;0.95;;;11.10;99.90;;;;;;4954984;28;20625;-61
2023/01/05 08:03:48;;;;;;;1.27;1.20;;;11.10;99.90;;;;;;4956477;28;20265;-63
2023/01/05 08:06:19;;;;;;;0.60;0.60;;;11.10;99.90;;;;;;4974912;28;20675;-61
2023/01/05 08:08:45;;;;;;;0.90;0.88;;;11.20;99.90;;;;;;4974788;28;20211;-62
2023/01/05 08:11:14;;;;;;;1.05;1.05;;;11.20;99.90;;;;;;4974882;28;20233;-62
2023/01/05 08:13:58;;;;;;;1.20;1.10;;;11.20;99.90;;;;;;4974487;28;20578;-61
2023/01/05 08:16:24;;;;;;;3.03;2.50;;;11.20;99.90;;;;;;4957530;28;20691;-60
2023/01/05 08:18:50;;;;;;;1.50;1.40;;;11.30;99.90;;;;;;4958816;28;20181;-63
2023/01/05 08:21:15;;;;;;;0.93;0.93;;;11.30;99.90;;;;;;4974810;28;20538;-63
2023/01/05 08:23:41;;;;;;;0.40;0.40;;;11.30;99.90;;;;;;4973926;28;20180;-62
2023/01/05 08:26:11;;;;;;;1.47;1.07;;;11.40;99.90;;;;;;4974450;28;20226;-61
2023/01/05 08:28:37;;;;;;;0.80;0.80;;;11.40;99.90;;;;;;4974721;28;20263;-62
2023/01/05 08:31:21;;;;;;;0.73;0.73;;;11.40;99.90;;;;;;4974489;28;20191;-62
2023/01/05 08:33:47;;;;;;;1.83;0.98;;;11.50;99.90;;;;;;4962903;28;20572;-63
2023/01/05 08:36:16;;;;;;;2.13;1.10;;;11.50;99.90;;;;;;4954961;28;20189;-63
2023/01/05 08:38:48;;;;;;;1.30;1.00;;;11.50;99.90;;;;;;4955164;28;20174;-62
2023/01/05 08:41:18;;;;;;;4.20;0.97;;;11.50;99.90;;;;;;4955428;28;20543;-63
2023/01/05 08:43:47;;;;;;;3.42;1.33;;;11.50;99.90;;;;;;4954747;28;20408;-63
2023/01/05 08:46:13;;;;;;;0.50;0.50;;;11.50;99.90;;;;;;4955195;28;20241;-63
2023/01/05 08:48:38;;;;;;;1.80;1.20;;;11.60;99.90;;;;;;4955180;28;20845;-63
2023/01/05 08:51:06;;;;;;;1.70;1.60;;;11.60;99.90;;;;;;4954973;28;20205;-63
2023/01/05 08:53:33;;;;;;;2.78;0.88;;;11.60;99.90;;;;;;4954761;29;20161;-63
2023/01/05 08:55:59;;;;;;;3.25;1.15;;;11.60;99.90;;;;;;4955292;28;20180;-63
2023/01/05 08:58:25;;;;;;;1.23;1.00;;;11.60;99.90;;;;;;4955211;28;20246;-62
2023/01/05 09:00:52;;;;;;;1.00;1.00;;;11.70;99.90;;;;;;4955265;29;20944;-62
2023/01/05 09:03:18;;;;;;;4.25;1.30;;;11.70;99.90;;;;;;4954642;28;20237;-63
2023/01/05 09:05:43;;;;;;;1.70;1.60;;;11.70;99.90;;;;;;4954910;29;20283;-63
2023/01/05 09:08:09;;;;;;;2.63;1.10;;;11.70;99.90;;;;;;4954824;29;20191;-62
2023/01/05 09:10:35;;;;;;;1.93;1.10;;;11.80;99.90;;;;;;4957711;28;20205;-63
2023/01/05 09:13:00;;;;;;;0.70;0.70;;;11.70;99.90;;;;;;4974919;28;20204;-62
2023/01/05 09:15:26;;;;;;;2.70;1.07;;;11.70;99.90;;;;;;4978046;28;20206;-63
2023/01/05 09:17:51;;;;;;;2.03;0.80;;;11.70;99.90;;;;;;4978108;28;20173;-62
2023/01/05 09:20:17;;;;;;;2.10;1.00;;;11.70;99.90;;;;;;4977705;28;20564;-62
2023/01/05 09:22:43;;;;;;;3.90;1.57;;;11.70;99.90;;;;;;4977475;28;20170;-64
2023/01/05 09:25:09;;;;;;;2.60;1.20;;;11.70;99.90;;;;;;4977807;28;20245;-62
2023/01/05 09:27:35;;;;;;;1.87;1.33;;;11.80;99.90;;;;;;4977873;28;20887;-62
2023/01/05 09:30:02;;;;;;;1.27;0.90;;;11.80;99.90;;;;;;4977906;28;20419;-64
2023/01/05 09:32:28;;;;;;;1.57;1.00;;;11.80;99.90;;;;;;4977783;28;20456;-64
2023/01/05 09:34:53;;;;;;;2.00;0.77;;;11.80;99.90;;;;;;4976735;28;20568;-63
2023/01/05 09:37:19;;;;;;;2.17;0.63;;;11.80;99.90;;;;;;4977613;28;20206;-62
2023/01/05 09:39:45;;;;;;;1.33;1.00;;;11.90;99.90;;;;;;4977578;28;20173;-63
2023/01/05 09:42:16;;;;;;;3.03;1.40;;;11.90;99.90;;;;;;4976258;28;20181;-62
2023/01/05 09:44:50;;;;;;;4.30;1.00;;;12.00;99.90;;;;;;4977081;28;20479;-63
2023/01/05 09:47:34;;;;;;;1.90;1.37;;;12.00;99.90;;;;;;4976371;28;20424;-62
2023/01/05 09:50:00;;;;;;;2.00;0.63;;;12.10;99.90;;;;;;4977238;28;20792;-63
2023/01/05 09:52:26;;;;;;;0.63;0.53;;;12.10;99.90;;;;;;4977383;28;20471;-61
2023/01/05 09:54:51;;;;;;;1.00;1.00;;;12.10;99.90;;;;;;4977126;28;20438;-62
2023/01/05 09:57:25;;;;;;;3.70;0.83;;;12.10;99.90;;;;;;4977533;28;20435;-62
2023/01/05 10:00:00;;;;;;;3.27;2.43;;;12.10;99.90;;;;;;4977583;28;20171;-62
2023/01/05 10:02:28;;;;;;;1.80;0.97;;;12.10;99.90;;;;;;4977218;28;20425;-62
2023/01/05 10:04:55;;;;;;;2.10;1.10;;;12.10;99.90;;;;;;4976793;28;20417;-62
2023/01/05 10:07:42;;;;;;;2.97;1.10;;;12.20;99.90;;;;;;4976951;28;20527;-61
2023/01/05 10:13:01;;;;;;;3.07;0.80;;;12.20;99.90;;;;;;4977089;28;20429;-62
2023/01/05 10:13:43;;;;;;;4.53;0.83;;;12.20;99.90;;;;;;4975676;28;20423;-62
2023/01/05 10:16:15;;;;;;;1.37;0.80;;;12.20;99.90;;;;;;4977081;28;20422;-62
2023/01/05 10:18:41;;;;;;;0.93;0.93;;;12.20;99.90;;;;;;4976772;28;20437;-62
2023/01/05 10:21:29;;;;;;;1.03;0.70;;;12.20;99.90;;;;;;4977265;28;20422;-63
2023/01/05 10:23:58;;;;;;;2.63;0.93;;;12.20;99.90;;;;;;4976123;28;20203;-62
2023/01/05 10:26:25;;;;;;;2.20;1.10;;;12.20;99.90;;;;;;4976341;28;20414;-63
2023/01/05 10:29:21;;;;;;;2.30;0.60;;;12.20;99.90;;;;;;4975494;28;20455;-62
2023/01/05 10:31:58;;;;;;;3.17;1.03;;;12.30;99.90;;;;;;4968840;28;20469;-64
2023/01/05 10:34:42;;;;;;;2.90;1.40;;;12.40;99.90;;;;;;4973105;28;20511;-62
2023/01/05 10:37:27;;;;;;;4.70;1.50;;;12.40;99.90;;;;;;4975795;28;20414;-63
2023/01/05 10:39:58;;;;;;;3.23;1.10;;;12.40;99.90;;;;;;4976551;28;20458;-61
2023/01/05 10:42:32;;;;;;;2.07;1.43;;;12.40;99.90;;;;;;4974819;28;20418;-62
2023/01/05 10:45:01;;;;;;;3.50;1.30;;;12.40;99.90;;;;;;4958915;28;20456;-63
2023/01/05 10:47:29;;;;;;;0.97;0.90;;;12.50;99.90;;;;;;4956861;28;20454;-61
2023/01/05 10:49:55;;;;;;;2.20;0.90;;;12.40;99.90;;;;;;4957373;29;20810;-61
2023/01/05 10:52:21;;;;;;;6.93;1.20;;;12.40;99.90;;;;;;4955650;29;20463;-62
2023/01/05 10:54:59;;;;;;;2.30;1.10;;;12.50;99.90;;;;;;4974928;28;20438;-63
2023/01/05 10:57:31;;;;;;;3.03;1.00;;;12.50;99.90;;;;;;4976379;28;20406;-62
2023/01/05 11:00:03;;;;;;;5.03;1.73;;;12.50;99.90;;;;;;4976268;28;20438;-63
2023/01/05 11:02:34;;;;;;;4.47;1.53;;;12.50;99.90;;;;;;4976136;28;20441;-62
2023/01/05 11:05:25;;;;;;;1.10;0.90;;;12.50;99.90;;;;;;4974753;28;20439;-63
2023/01/05 11:07:54;;;;;;;2.57;1.10;;;12.50;99.90;;;;;;4975520;28;20449;-63
2023/01/05 11:10:33;;;;;;;1.07;0.80;;;12.50;99.90;;;;;;4976126;28;20420;-63
2023/01/05 11:13:01;;;;;;;10.30;1.37;;;12.50;99.90;;;;;;4975420;28;20415;-62
2023/01/05 11:15:29;;;;;;;5.80;1.20;;;12.60;99.90;;;;;;4975829;28;20489;-63
2023/01/05 11:17:55;;;;;;;2.63;1.13;;;12.70;99.90;;;;;;4975829;28;20416;-62
2023/01/05 11:20:21;;;;;;;2.30;1.30;;;12.70;99.90;;;;;;4975920;28;20403;-62
2023/01/05 11:22:48;;;;;;;3.43;0.80;;;12.70;99.90;;;;;;4975139;28;20435;-67
2023/01/05 11:25:21;;;;;;;1.27;1.00;;;12.70;99.90;;;;;;4975597;28;20221;-63
2023/01/05 11:28:03;;;;;;;2.40;0.90;;;12.70;99.90;;;;;;4975834;28;20505;-63
2023/01/05 11:30:30;;;;;;;4.57;1.23;;;12.60;99.90;;;;;;4975744;28;20964;-62
2023/01/05 11:32:57;;;;;;;5.00;1.23;;;12.70;99.90;;;;;;4975400;28;20775;-63
2023/01/05 11:35:32;;;;;;;6.77;1.97;;;12.70;99.90;;;;;;4975246;28;20532;-62
2023/01/05 11:37:59;;;;;;;4.20;1.43;;;12.70;99.90;;;;;;4965013;28;20726;-62
2023/01/05 11:40:29;;;;;;;2.67;1.63;;;12.70;99.90;;;;;;4956237;28;20494;-63
2023/01/05 11:42:56;;;;;;;2.80;1.80;;;12.70;99.90;;;;;;4955875;28;20827;-61
2023/01/05 11:45:27;;;;;;;1.33;1.03;;;12.60;99.90;;;;;;4954871;29;20510;-62
2023/01/05 11:47:55;;;;;;;1.93;1.00;;;12.70;99.90;;;;;;4956211;29;20416;-62
2023/01/05 11:50:37;;;;;;;4.73;1.43;;;12.70;99.90;;;;;;4955906;29;20458;-62
2023/01/05 11:53:02;;;;;;;8.33;1.67;;;12.80;99.90;;;;;;4955800;28;20422;-62
2023/01/05 11:55:37;;;;;;;2.80;1.53;;;12.70;99.90;;;;;;4955953;29;20434;-63
2023/01/05 11:58:21;;;;;;;4.13;3.23;;;12.80;99.90;;;;;;4956024;28;20305;-63
2023/01/05 12:01:10;;;;;;;1.87;1.10;;;12.80;99.90;;;;;;4955867;28;20425;-63
2023/01/05 12:04:05;;;;;;;2.20;1.53;;;12.80;99.90;;;;;;4971642;28;20427;-63
2023/01/05 12:06:41;;;;;;;10.00;1.30;;;12.80;99.90;;;;;;4974225;28;20785;-64
2023/01/05 12:09:29;;;;;;;2.17;1.00;;;12.80;99.90;;;;;;4967502;28;20517;-63
2023/01/05 12:11:54;;;;;;;2.17;1.33;;;12.80;99.90;;;;;;4955668;29;20546;-63
2023/01/05 12:14:45;;;;;;;8.17;1.47;;;12.80;99.90;;;;;;4956304;28;20533;-63
2023/01/05 12:17:18;;;;;;;2.00;1.10;;;12.70;99.90;;;;;;4969693;28;20549;-63
2023/01/05 12:20:21;;;;;;;2.60;0.90;;;12.70;99.90;;;;;;4975108;28;20403;-63
2023/01/05 12:23:07;;;;;;;1.67;1.00;;;12.70;99.90;;;;;;4974676;28;20831;-60
2023/01/05 12:25:52;;;;;;;1.30;0.97;;;12.70;99.90;;;;;;4974827;28;20508;-62
2023/01/05 12:28:43;;;;;;;3.07;1.57;;;12.70;99.90;;;;;;4974950;28;20413;-60
2023/01/05 12:31:12;;;;;;;5.20;1.67;;;12.70;99.90;;;;;;4974475;28;20466;-62
2023/01/05 12:33:46;;;;;;;4.10;1.47;;;12.70;99.90;;;;;;4974236;28;20423;-61
2023/01/05 12:36:18;;;;;;;3.77;1.30;;;12.60;99.90;;;;;;4974872;28;20409;-62
2023/01/05 12:38:55;;;;;;;1.93;0.80;;;12.60;99.90;;;;;;4974786;28;20414;-61
2023/01/05 12:41:45;;;;;;;10.53;1.70;;;12.60;99.90;;;;;;4974761;28;20417;-61
2023/01/05 12:44:32;;;;;;;2.63;1.00;;;12.60;99.90;;;;;;4973958;28;20792;-64
2023/01/05 12:47:17;;;;;;;0.97;0.97;;;12.50;99.90;;;;;;4955543;28;20430;-67
2023/01/05 12:50:01;;;;;;;2.50;1.03;;;12.60;99.90;;;;;;4961991;28;20472;-70
2023/01/05 12:52:31;;;;;;;2.67;0.90;;;12.50;99.90;;;;;;4962438;28;20812;-67
2023/01/05 12:55:25;;;;;;;3.73;1.60;;;12.50;99.90;;;;;;4961372;28;20452;-67
2023/01/05 12:57:57;;;;;;;2.40;1.23;;;12.50;99.90;;;;;;4960546;28;20423;-67
2023/01/05 13:00:27;;;;;;;4.73;0.97;;;12.40;99.90;;;;;;4961561;28;20512;-66
2023/01/05 13:02:59;;;;;;;1.77;1.13;;;12.40;99.90;;;;;;4961111;28;20821;-66
2023/01/05 13:05:49;;;;;;;6.50;1.07;;;12.40;99.90;;;;;;4960201;28;20446;-67
2023/01/05 13:08:22;;;;;;;3.83;1.30;;;12.40;99.90;;;;;;4961259;28;20412;-67
2023/01/05 13:10:55;;;;;;;6.00;0.97;;;12.30;99.90;;;;;;4965067;28;20459;-70
2023/01/05 13:13:58;;;;;;;3.23;1.60;;;12.30;99.90;;;;;;4964533;28;20409;-67
2023/01/05 13:16:29;;;;;;;3.60;1.00;;;12.40;99.90;;;;;;4921128;29;20416;-66
2023/01/05 13:19:11;;;;;;;3.20;1.00;;;12.30;99.90;;;;;;4951011;28;20468;-66
2023/01/05 13:21:41;;;;;;;4.37;1.20;;;12.30;99.90;;;;;;4962245;28;20427;-66
2023/01/05 13:24:36;;;;;;;5.10;1.87;;;12.30;99.90;;;;;;4960631;28;20498;-67
2023/01/05 13:27:02;;;;;;;2.80;1.00;;;12.20;99.90;;;;;;4966870;28;20442;-65
2023/01/05 13:29:37;;;;;;;4.43;2.30;;;12.20;99.90;;;;;;4979580;28;21006;-67
2023/01/05 13:32:27;;;;;;;9.33;1.43;;;12.20;99.90;;;;;;4965676;28;20457;-69
2023/01/05 13:35:21;;;;;;;2.53;1.03;;;12.20;99.90;;;;;;4960791;28;20426;-68
2023/01/05 13:37:58;;;;;;;1.67;1.57;;;12.20;99.90;;;;;;4961234;28;20410;-68
2023/01/05 13:40:42;;;;;;;3.13;1.83;;;12.20;99.90;;;;;;4961168;28;20438;-68
2023/01/05 13:43:18;;;;;;;1.10;0.90;;;12.20;99.90;;;;;;4978286;28;20441;-67
2023/01/05 13:45:58;;;;;;;2.40;1.50;;;12.10;99.90;;;;;;4980461;28;20484;-68
2023/01/05 13:49:01;;;;;;;2.00;1.37;;;12.20;99.90;;;;;;4980519;28;20713;-67
2023/01/05 13:51:35;;;;;;;3.13;1.80;;;12.20;99.90;;;;;;4972050;28;20532;-68
2023/01/05 13:54:05;;;;;;;7.43;1.77;;;12.20;99.90;;;;;;4960702;28;20956;-69
2023/01/05 13:56:36;;;;;;;1.10;1.00;;;12.20;99.90;;;;;;4962078;28;20459;-67
2023/01/05 13:59:05;;;;;;;2.07;1.40;;;12.20;99.90;;;;;;4959261;28;20852;-67
2023/01/05 14:01:42;;;;;;;3.83;1.30;;;12.20;99.90;;;;;;4958000;28;20455;-69
2023/01/05 14:04:23;;;;;;;1.93;1.60;;;12.20;99.90;;;;;;4956868;29;20530;-68
2023/01/05 14:06:52;;;;;;;5.67;1.50;;;12.30;99.90;;;;;;4958011;28;20415;-68
2023/01/05 14:09:23;;;;;;;3.93;1.53;;;12.30;99.90;;;;;;4958018;29;20513;-66
2023/01/05 14:12:07;;;;;;;3.27;1.80;;;12.20;99.90;;;;;;4957505;29;20890;-68
2023/01/05 14:15:00;;;;;;;1.93;1.40;;;12.30;99.90;;;;;;4957211;28;20510;-68
2023/01/05 14:17:51;;;;;;;0.80;0.80;;;12.30;99.90;;;;;;4957715;28;20404;-68
2023/01/05 14:20:43;;;;;;;2.50;1.50;;;12.30;99.90;;;;;;4957612;28;20421;-69
2023/01/05 14:26:02;;;;;;;2.63;1.20;;;12.30;99.90;;;;;;4957718;28;20470;-68
2023/01/05 14:28:27;;;;;;;2.40;1.70;;;12.20;99.90;;;;;;4973350;28;20838;-68
2023/01/05 14:31:14;;;;;;;2.83;1.37;;;12.20;99.90;;;;;;4976762;28;20461;-69
2023/01/05 14:33:56;;;;;;;5.43;1.47;;;12.20;99.90;;;;;;4972604;28;20183;-70
2023/01/05 14:36:55;;;;;;;6.10;1.40;;;12.20;99.90;;;;;;4957484;29;20414;-69
2023/01/05 14:39:30;;;;;;;3.73;1.63;;;12.20;99.90;;;;;;4957396;29;20476;-68
2023/01/05 14:42:17;;;;;;;3.30;1.40;;;12.20;99.90;;;;;;4957612;28;20413;-68
2023/01/05 14:45:05;;;;;;;4.80;1.60;;;12.20;99.90;;;;;;4956859;29;20435;-66
2023/01/05 14:47:47;;;;;;;6.27;1.90;;;12.10;99.90;;;;;;4957163;29;20437;-69
2023/01/05 14:50:36;;;;;;;2.30;1.07;;;12.10;99.90;;;;;;4957164;28;20508;-67
2023/01/05 14:53:46;;;;;;;3.60;1.43;;;12.10;99.90;;;;;;4955281;29;20430;-67
2023/01/05 14:56:21;;;;;;;3.53;1.67;;;12.10;99.90;;;;;;4957133;28;20959;-68
2023/01/05 14:59:18;;;;;;;1.50;1.40;;;12.10;99.90;;;;;;4966858;28;20767;-67
2023/01/05 15:01:52;;;;;;;1.30;1.20;;;12.10;99.90;;;;;;4974075;28;20449;-67
2023/01/05 15:04:28;;;;;;;3.37;1.30;;;12.10;99.90;;;;;;4975886;28;20925;-66
2023/01/05 15:07:41;;;;;;;10.67;1.53;;;12.10;99.90;;;;;;4975957;28;20421;-69
2023/01/05 15:10:38;;;;;;;1.83;1.40;;;12.10;99.90;;;;;;4973933;28;20449;-67
2023/01/05 15:13:34;;;;;;;1.07;0.97;;;12.10;99.90;;;;;;4969215;28;20469;-67
2023/01/05 15:16:52;;;;;;;3.60;1.60;;;12.00;99.90;;;;;;4956790;29;20403;-68
2023/01/05 15:19:47;;;;;;;1.57;1.17;;;12.00;99.90;;;;;;4937834;29;20916;-66
2023/01/05 15:22:25;;;;;;;7.23;1.50;;;12.00;99.90;;;;;;4951583;29;20425;-68
2023/01/05 15:24:58;;;;;;;11.43;1.93;;;12.00;99.90;;;;;;4956075;29;20513;-66
2023/01/05 15:27:36;;;;;;;1.93;1.00;;;12.00;99.90;;;;;;4956531;28;20427;-68
2023/01/05 15:30:34;;;;;;;3.13;1.17;;;12.00;99.90;;;;;;4956568;29;20412;-66
2023/01/05 15:33:25;;;;;;;2.00;1.30;;;12.00;99.90;;;;;;4956144;29;20426;-68
2023/01/05 15:35:59;;;;;;;1.50;1.33;;;11.90;99.90;;;;;;4956260;29;20432;-68
2023/01/05 15:38:27;;;;;;;3.35;1.88;;;11.90;99.90;;;;;;4956381;29;20399;-68
2023/01/05 15:41:11;;;;;;;1.97;1.70;;;11.90;99.90;;;;;;4956141;28;20205;-67
2023/01/05 15:43:39;;;;;;;5.43;2.33;;;11.90;99.90;;;;;;4955650;28;20497;-66
2023/01/05 15:46:05;;;;;;;2.20;1.70;;;11.90;99.90;;;;;;4956126;29;20548;-68
2023/01/05 15:48:33;;;;;;;4.93;1.23;;;11.90;99.90;;;;;;4956066;28;20402;-66
2023/01/05 15:51:00;;;;;;;1.70;1.60;;;11.90;99.90;;;;;;4956110;29;20443;-66
2023/01/05 15:53:36;;;;;;;6.03;1.40;;;11.90;99.90;;;;;;4955537;28;20492;-67
2023/01/05 15:56:03;;;;;;;2.43;1.20;;;11.80;99.90;;;;;;4956045;28;20406;-66
2023/01/05 15:58:31;;;;;;;1.70;1.53;;;11.80;99.90;;;;;;4963526;28;20432;-67
2023/01/05 16:01:01;;;;;;;7.50;1.53;;;11.80;99.90;;;;;;4974548;28;21022;-67
2023/01/05 16:03:30;;;;;;;2.03;1.93;;;11.80;99.90;;;;;;4961793;28;20429;-65
2023/01/05 16:05:58;;;;;;;4.93;1.23;;;11.80;99.90;;;;;;4972158;28;20966;-68
2023/01/05 16:08:25;;;;;;;1.80;1.50;;;11.80;99.90;;;;;;4974321;28;20422;-67
2023/01/05 16:10:54;;;;;;;4.90;1.87;;;11.70;99.90;;;;;;4974042;28;21374;-69
2023/01/05 16:13:42;;;;;;;5.93;1.70;;;11.70;99.90;;;;;;4973971;28;20745;-64
2023/01/05 16:16:22;;;;;;;3.17;1.23;;;11.70;99.90;;;;;;4956843;28;20460;-65
2023/01/05 16:19:08;;;;;;;2.03;1.20;;;11.70;99.90;;;;;;4954058;29;20491;-69
2023/01/05 16:21:59;;;;;;;3.90;1.27;;;11.70;99.90;;;;;;4957699;28;20843;-66
2023/01/05 16:24:48;;;;;;;3.50;1.53;;;11.70;99.90;;;;;;4954696;28;20431;-67
2023/01/05 16:27:15;;;;;;;1.30;1.20;;;11.70;99.90;;;;;;4953780;29;20412;-67
2023/01/05 16:29:44;;;;;;;3.33;1.50;;;11.60;99.90;;;;;;4959342;28;20444;-67
2023/01/05 16:32:30;;;;;;;1.50;1.40;;;11.60;99.90;;;;;;4956504;28;20883;-68
2023/01/05 16:35:38;;;;;;;1.30;1.20;;;11.60;99.90;;;;;;4954322;29;20461;-66
2023/01/05 16:38:09;;;;;;;2.03;1.40;;;11.60;99.90;;;;;;4962509;28;20419;-63
2023/01/05 16:40:39;;;;;;;2.10;1.43;;;11.60;99.90;;;;;;4954774;28;20421;-67
2023/01/05 16:43:20;;;;;;;3.53;2.10;;;11.50;99.90;;;;;;4955824;28;20506;-66
2023/01/05 16:45:48;;;;;;;1.80;1.57;;;11.60;99.90;;;;;;4973276;28;20466;-63
2023/01/05 16:48:40;;;;;;;4.83;1.50;;;11.60;99.90;;;;;;4965976;28;20446;-69
2023/01/05 16:51:20;;;;;;;1.27;1.27;;;11.50;99.90;;;;;;4957739;28;20485;-68
2023/01/05 16:53:50;;;;;;;1.93;1.23;;;11.50;99.90;;;;;;4960481;28;20409;-67
2023/01/05 16:56:52;;;;;;;4.03;1.67;;;11.50;99.90;;;;;;4954322;29;20405;-66
2023/01/05 16:59:50;;;;;;;1.50;1.40;;;11.50;99.90;;;;;;4953325;28;20414;-68
2023/01/05 17:02:41;;;;;;;3.10;1.60;;;11.50;99.90;;;;;;4960787;28;20422;-68
2023/01/05 17:05:06;;;;;;;3.63;1.55;;;11.50;99.90;;;;;;4954491;29;20449;-66
2023/01/05 17:07:36;;;;;;;2.00;1.90;;;11.50;99.90;;;;;;4954270;28;20204;-65
2023/01/05 17:10:02;;;;;;;3.23;2.10;;;11.50;99.90;;;;;;4953093;28;20675;-69
2023/01/05 17:12:27;;;;;;;3.60;2.10;;;11.40;99.90;;;;;;4953186;28;20473;-67
2023/01/05 17:14:56;;;;;;;2.03;1.83;;;11.40;99.90;;;;;;4971697;28;20487;-67
2023/01/05 17:17:23;;;;;;;2.00;1.70;;;11.40;99.90;;;;;;4956356;28;20225;-67
2023/01/05 17:19:52;;;;;;;2.60;1.73;;;11.40;99.90;;;;;;4953091;28;20952;-67
2023/01/05 17:22:18;;;;;;;7.95;2.97;;;11.40;99.90;;;;;;4970378;28;20424;-67
2023/01/05 17:24:44;;;;;;;2.27;1.63;;;11.30;99.90;;;;;;4973349;28;20197;-68
2023/01/05 17:27:09;;;;;;;5.63;2.30;;;11.30;99.90;;;;;;4973640;28;20463;-67
2023/01/05 17:29:36;;;;;;;2.57;2.10;;;11.30;99.90;;;;;;4972435;28;20174;-69
2023/01/05 17:32:02;;;;;;;3.67;2.63;;;11.30;99.90;;;;;;4956998;28;20671;-68
2023/01/05 17:34:28;;;;;;;4.23;2.47;;;11.20;99.90;;;;;;4955617;28;20661;-68
2023/01/05 17:36:57;;;;;;;4.00;2.73;;;11.20;99.90;;;;;;4958063;28;20402;-68
2023/01/05 17:39:24;;;;;;;3.22;2.20;;;11.10;99.90;;;;;;4958043;28;20169;-69
2023/01/05 17:41:50;;;;;;;3.35;2.10;;;11.20;99.90;;;;;;4974045;28;20199;-67
2023/01/05 17:44:16;;;;;;;2.13;1.90;;;11.10;99.90;;;;;;4976803;28;20193;-67
2023/01/05 17:46:45;;;;;;;3.17;2.13;;;11.10;99.90;;;;;;4961116;28;20450;-67
2023/01/05 17:49:14;;;;;;;5.57;2.70;;;11.10;99.90;;;;;;4957715;28;20428;-68
2023/01/05 17:51:39;;;;;;;2.33;2.13;;;11.10;99.90;;;;;;4957539;28;20812;-67
2023/01/05 17:54:05;;;;;;;6.63;2.80;;;11.00;99.90;;;;;;4957274;29;20197;-68
2023/01/05 17:56:30;;;;;;;1.60;1.50;;;11.00;99.90;;;;;;4957663;29;20601;-67
2023/01/05 17:58:56;;;;;;;2.47;2.07;;;11.00;99.90;;;;;;4966119;28;20188;-67
2023/01/05 18:01:22;;;;;;;6.70;5.00;;;10.90;99.90;;;;;;4976730;28;20173;-66
2023/01/05 18:03:47;;;;;;;3.80;3.23;;;10.90;99.90;;;;;;4976327;28;20192;-66
2023/01/05 18:06:13;;;;;;;4.60;2.70;;;10.80;99.90;;;;;;4971038;28;20180;-68
2023/01/05 18:08:39;;;;;;;4.73;2.13;;;10.70;99.90;;;;;;4965676;28;20264;-66
2023/01/05 18:11:06;;;;;;;2.07;1.93;;;10.70;99.90;;;;;;4966461;28;20271;-65
2023/01/05 18:13:32;;;;;;;6.60;2.55;;;10.70;99.90;;;;;;4964068;28;20186;-65
2023/01/05 18:15:58;;;;;;;3.67;2.17;;;10.60;99.90;;;;;;4965641;28;20158;-65
2023/01/05 18:18:24;;;;;;;2.13;1.97;;;10.60;99.90;;;;;;4973454;28;20234;-65
2023/01/05 18:20:51;;;;;;;3.03;2.83;;;10.60;99.90;;;;;;4964682;28;20181;-66
2023/01/05 18:23:18;;;;;;;2.00;1.90;;;10.50;99.90;;;;;;4972384;28;20194;-67
2023/01/05 18:25:44;;;;;;;4.50;3.45;;;10.40;99.90;;;;;;4975023;28;20192;-67